Terminal Aerodrome Forecast
Issued by NWS

Home | Current Version | Previous Version | Text Only | Print | Product List | Glossary On
Versions: 1 2 3 4 5 6 7 8 9 10 11 12 13 14 15 16 17 18
000
FTUS45 KRIW 182300
TAFCPR
TAF
KCPR 182339Z 1900/1924 26026G38KT P6SM SCT110
     FM190200 27015G25KT P6SM SCT100 BKN150
     FM190900 35011KT P6SM FEW020 SCT250
     FM191200 VRB05KT P6SM BKN020
     FM191500 VRB04KT P6SM SCT030
     FM191800 23012G18KT P6SM SKC=

USA.gov is the U.S. government's official web portal to all federal, state and local government web resources and services.